Aviation Digital Data Service (ADDS)

Output produced by METARs form (0458 UTC 25 April 2014)
found at http://aviationweather.gov/adds/metars/
 
KALB 242322Z 2500/2524 32013G21KT P6SM SKC 
     FM250200 31007KT P6SM SKC 
     FM250600 00000KT P6SM SKC 
     FM251500 13005KT P6SM SCT150 SCT250 
     FM252000 17009KT P6SM SCT100 BKN200